Eureka, Montana
Current Conditions -  °F | °C
As of 9:55 AM on Monday 22 Dec 2014 (Local Time) from KGPI Reporting Station
Overcast Overcast  
Wind Chill: 27°   Ceiling: 5500
Heat Index: 32°   Visibility: 10mi
Dew Point: 29°   Wind: 5mph
Humidity: 88%   Direction: 360°N
Pressure: 29.97"   Gusts: NA
Location:  48.88°N, 115.05°W
Report Text: KGPI 221655Z 36004KT 10SM OVC055 00/M02 A2997 RMK AO2 SNE36 SLP172 P0000 T00001017 $
Loading
Personal Weather Stations






























Interactive Weather Map New forecast layout! Learn more

10-Day Weather Forecast

Advertisements
Track Severe Weather on mobile